Time;durP1;ratioP1;P1;durP2;ratioP2;P2;SDS_P1;SDS_P2;PMS_P1;PMS_P2;Temp;Humidity;BMP_temperature;BMP_pressure;BME280_temperature;BME280_humidity;BME280_pressure;Samples;Min_cycle;Max_cycle;Signal;HPM_P1;HPM_P2
2022/11/30 00:00:54;;;;;;;80.67;32.30;;;9.90;99.90;;;;;;4947132;29;20436;-76
2022/11/30 00:03:20;;;;;;;66.83;29.90;;;9.90;99.90;;;;;;4950461;28;20792;-77
2022/11/30 00:05:46;;;;;;;83.73;31.90;;;9.90;99.90;;;;;;4949965;28;20257;-76
2022/11/30 00:08:12;;;;;;;86.53;36.87;;;9.90;99.90;;;;;;4950326;28;20269;-77
2022/11/30 00:10:40;;;;;;;92.00;33.50;;;9.90;99.90;;;;;;4950517;28;20242;-78
2022/11/30 00:13:07;;;;;;;84.73;32.90;;;9.90;99.90;;;;;;4949649;28;20286;-78
2022/11/30 00:15:33;;;;;;;89.23;34.97;;;9.90;99.90;;;;;;4950646;28;20438;-76
2022/11/30 00:17:58;;;;;;;94.77;33.93;;;9.90;99.90;;;;;;4950503;28;20508;-76
2022/11/30 00:20:27;;;;;;;90.60;35.33;;;9.90;99.90;;;;;;4949918;29;20174;-75
2022/11/30 00:22:54;;;;;;;110.70;39.10;;;9.90;99.90;;;;;;4944258;29;20516;-75
2022/11/30 00:25:19;;;;;;;80.93;36.33;;;9.90;99.90;;;;;;4948780;28;20497;-76
2022/11/30 00:27:45;;;;;;;116.40;38.20;;;9.90;99.90;;;;;;4946593;29;20430;-78
2022/11/30 00:30:11;;;;;;;89.53;34.93;;;9.90;99.90;;;;;;4947343;28;20596;-78
2022/11/30 00:32:36;;;;;;;108.17;37.33;;;9.90;99.90;;;;;;4949706;28;20701;-78
2022/11/30 00:35:02;;;;;;;96.33;34.13;;;9.90;99.90;;;;;;4949719;28;20422;-79
2022/11/30 00:37:28;;;;;;;102.27;39.57;;;9.90;99.90;;;;;;4950695;28;20237;-78
2022/11/30 00:39:53;;;;;;;100.37;36.03;;;9.90;99.90;;;;;;4948962;28;20210;-75
2022/11/30 00:42:19;;;;;;;75.77;33.77;;;9.90;99.90;;;;;;4946711;29;20220;-78
2022/11/30 00:44:44;;;;;;;88.83;35.13;;;9.90;99.90;;;;;;4949411;28;20179;-78
2022/11/30 00:47:10;;;;;;;97.07;34.93;;;9.90;99.90;;;;;;4949312;28;20185;-77
2022/11/30 00:49:35;;;;;;;76.00;33.07;;;9.90;99.90;;;;;;4947767;28;20673;-77
2022/11/30 00:52:01;;;;;;;87.33;33.63;;;9.90;99.90;;;;;;4950706;28;20178;-78
2022/11/30 00:54:27;;;;;;;88.13;34.90;;;9.90;99.90;;;;;;4948776;28;20598;-77
2022/11/30 00:56:52;;;;;;;105.80;34.27;;;9.90;99.90;;;;;;4950613;28;20309;-78
2022/11/30 00:59:18;;;;;;;96.50;34.53;;;9.90;99.90;;;;;;4948700;28;20502;-78
2022/11/30 01:01:43;;;;;;;90.47;34.97;;;9.90;99.90;;;;;;4950506;29;20249;-76
2022/11/30 01:04:09;;;;;;;80.37;33.27;;;9.90;99.90;;;;;;4949506;28;20201;-77
2022/11/30 01:06:35;;;;;;;88.30;34.93;;;9.90;99.90;;;;;;4949800;28;20210;-78
2022/11/30 01:09:01;;;;;;;82.20;32.53;;;9.90;99.90;;;;;;4942214;29;20514;-78
2022/11/30 01:11:29;;;;;;;84.93;33.60;;;9.90;99.90;;;;;;4952153;28;20508;-80
2022/11/30 01:13:56;;;;;;;73.83;30.13;;;9.90;99.90;;;;;;4952687;28;20436;-79
2022/11/30 01:16:25;;;;;;;82.83;32.83;;;9.90;99.90;;;;;;4953737;28;20429;-79
2022/11/30 01:18:51;;;;;;;88.10;36.30;;;9.90;99.90;;;;;;4949335;29;21013;-80
2022/11/30 01:21:22;;;;;;;84.73;34.53;;;9.90;99.90;;;;;;4951055;29;20514;-77
2022/11/30 01:23:49;;;;;;;87.20;33.00;;;9.90;99.90;;;;;;4955796;28;20265;-78
2022/11/30 01:26:15;;;;;;;76.90;33.90;;;9.90;99.90;;;;;;4955592;28;20785;-77
2022/11/30 01:28:43;;;;;;;79.90;30.67;;;9.90;99.90;;;;;;4956515;28;20445;-78
2022/11/30 01:31:10;;;;;;;89.37;30.93;;;9.90;99.90;;;;;;4955958;28;20478;-78
2022/11/30 05:32:09;;;;;;;34.43;19.50;;;8.80;99.90;;;;;;5141494;23;20496;-73
2022/11/30 05:34:35;;;;;;;32.00;20.07;;;8.80;99.90;;;;;;4906392;29;20973;-73
2022/11/30 05:37:00;;;;;;;36.03;18.97;;;8.80;99.90;;;;;;4914512;29;20188;-74
2022/11/30 05:39:26;;;;;;;36.17;20.47;;;8.80;99.90;;;;;;4905086;29;20593;-74
2022/11/30 05:41:51;;;;;;;39.40;19.40;;;8.80;99.90;;;;;;4906257;29;20255;-74
2022/11/30 05:44:17;;;;;;;32.17;19.40;;;8.80;99.90;;;;;;4908009;29;20191;-73
2022/11/30 05:46:42;;;;;;;37.50;19.80;;;8.80;99.90;;;;;;4905275;29;20720;-73
2022/11/30 05:49:08;;;;;;;37.80;22.33;;;8.80;99.90;;;;;;4905129;29;20271;-76
2022/11/30 05:51:34;;;;;;;33.33;18.93;;;8.80;99.90;;;;;;4907104;29;20543;-74
2022/11/30 05:53:59;;;;;;;36.33;20.40;;;8.80;99.90;;;;;;4905103;29;20224;-74
2022/11/30 05:56:25;;;;;;;33.47;20.47;;;8.80;99.90;;;;;;4905018;29;20682;-74
2022/11/30 05:58:50;;;;;;;33.60;18.70;;;8.80;99.90;;;;;;4909895;29;20659;-76
2022/11/30 06:01:21;;;;;;;28.57;16.93;;;8.80;99.90;;;;;;4908736;29;20492;-79
2022/11/30 06:03:47;;;;;;;36.90;20.73;;;8.80;99.90;;;;;;4910836;29;20184;-77
2022/11/30 06:06:13;;;;;;;38.90;22.27;;;8.80;99.90;;;;;;4908079;29;20477;-74
2022/11/30 06:08:38;;;;;;;31.57;20.30;;;8.80;99.90;;;;;;4908055;29;20244;-74
2022/11/30 06:11:04;;;;;;;34.70;22.07;;;8.80;99.90;;;;;;4909951;29;20187;-74
2022/11/30 06:13:32;;;;;;;33.03;20.40;;;8.80;99.90;;;;;;4908123;29;20196;-73
2022/11/30 06:16:02;;;;;;;38.00;19.77;;;8.80;99.90;;;;;;4908023;29;20245;-74
2022/11/30 06:18:28;;;;;;;35.77;21.90;;;8.80;99.90;;;;;;4907983;29;20476;-74
2022/11/30 06:20:54;;;;;;;27.20;18.40;;;8.80;99.90;;;;;;4914747;28;20843;-74
2022/11/30 06:23:19;;;;;;;35.43;20.33;;;8.80;99.90;;;;;;4931486;29;20569;-74
2022/11/30 06:25:45;;;;;;;31.20;19.77;;;8.80;99.90;;;;;;4933277;29;20179;-75
2022/11/30 06:28:11;;;;;;;33.17;19.13;;;8.80;99.90;;;;;;4935637;29;20175;-75
2022/11/30 06:30:37;;;;;;;34.37;20.47;;;8.80;99.90;;;;;;4935023;29;20227;-74
2022/11/30 06:33:02;;;;;;;31.87;19.10;;;8.80;99.90;;;;;;4935798;29;20201;-75
2022/11/30 06:35:28;;;;;;;33.80;21.40;;;8.80;99.90;;;;;;4935341;29;20435;-74
2022/11/30 06:37:54;;;;;;;37.33;21.40;;;8.80;99.90;;;;;;4925624;29;20240;-73
2022/11/30 06:40:19;;;;;;;33.80;20.23;;;8.80;99.90;;;;;;4928428;29;20187;-74
2022/11/30 06:42:45;;;;;;;34.63;20.07;;;8.80;99.90;;;;;;4928646;29;20222;-74
2022/11/30 06:45:11;;;;;;;36.07;20.27;;;8.80;99.90;;;;;;4926579;29;20196;-74
2022/11/30 06:47:37;;;;;;;39.47;21.10;;;8.80;99.90;;;;;;4928449;29;20238;-74
2022/11/30 06:50:04;;;;;;;33.47;20.10;;;8.80;99.90;;;;;;4928972;29;20435;-74
2022/11/30 06:52:30;;;;;;;37.67;22.87;;;8.90;99.90;;;;;;4926564;29;20462;-74
2022/11/30 06:54:56;;;;;;;35.67;20.67;;;8.90;99.90;;;;;;4927997;29;20439;-74
2022/11/30 06:57:26;;;;;;;37.70;19.20;;;8.90;99.90;;;;;;4933589;29;20454;-78
2022/11/30 06:59:52;;;;;;;31.80;19.73;;;8.90;99.90;;;;;;4934597;29;20291;-78
2022/11/30 07:02:18;;;;;;;39.93;21.93;;;8.90;99.90;;;;;;4935194;29;20496;-77
2022/11/30 07:04:43;;;;;;;35.53;22.40;;;8.90;99.90;;;;;;4932721;29;20262;-77
2022/11/30 07:07:09;;;;;;;36.83;21.37;;;8.90;99.90;;;;;;4933275;29;21101;-79
2022/11/30 07:09:34;;;;;;;37.30;20.53;;;8.90;99.90;;;;;;4934269;29;20183;-80
2022/11/30 07:12:00;;;;;;;37.20;22.40;;;8.90;99.90;;;;;;4932499;29;20579;-80
2022/11/30 07:14:26;;;;;;;39.03;22.17;;;8.90;99.90;;;;;;4932635;29;20328;-80
2022/11/30 07:16:51;;;;;;;35.23;21.83;;;8.90;99.90;;;;;;4934453;29;20936;-81
2022/11/30 07:19:17;;;;;;;41.27;21.80;;;8.90;99.90;;;;;;4933893;29;20183;-79
2022/11/30 07:21:43;;;;;;;38.23;20.93;;;8.90;99.90;;;;;;4933900;29;20647;-80
2022/11/30 07:26:55;;;;;;;44.13;22.43;;;8.90;99.90;;;;;;4930554;29;20194;-79
2022/11/30 07:29:21;;;;;;;35.30;20.40;;;8.90;99.90;;;;;;4932639;29;20450;-80
2022/11/30 07:31:51;;;;;;;36.53;20.53;;;8.90;99.90;;;;;;4931595;29;20467;-81
2022/11/30 07:34:17;;;;;;;42.37;22.00;;;8.90;99.90;;;;;;4932587;29;20326;-82
2022/11/30 07:36:43;;;;;;;44.53;22.33;;;8.90;99.90;;;;;;4933053;29;20504;-82
2022/11/30 07:39:08;;;;;;;43.17;21.73;;;8.90;99.90;;;;;;4934470;29;20522;-81
2022/11/30 07:41:34;;;;;;;44.70;23.70;;;8.90;99.90;;;;;;4933998;29;20203;-81
2022/11/30 07:43:59;;;;;;;39.70;21.87;;;8.90;99.90;;;;;;4934321;29;20193;-81
2022/11/30 07:46:25;;;;;;;38.40;21.43;;;9.00;99.90;;;;;;4933930;29;20676;-81
2022/11/30 07:48:50;;;;;;;40.47;21.37;;;8.90;99.90;;;;;;4925184;29;20739;-74
2022/11/30 07:51:19;;;;;;;42.47;24.03;;;8.90;99.90;;;;;;4924452;29;20214;-80
2022/11/30 07:53:45;;;;;;;40.80;23.63;;;8.90;99.90;;;;;;4926127;29;20195;-74
2022/11/30 07:56:13;;;;;;;35.23;21.80;;;9.00;99.90;;;;;;4923521;29;20443;-74
2022/11/30 07:58:40;;;;;;;40.57;22.97;;;9.00;99.90;;;;;;4926996;29;20183;-75
2022/11/30 08:01:11;;;;;;;42.37;21.90;;;9.00;99.90;;;;;;4924767;29;20439;-74
2022/11/30 08:03:37;;;;;;;40.07;22.50;;;9.00;99.90;;;;;;4926074;29;20479;-75
2022/11/30 08:06:14;;;;;;;49.20;22.77;;;9.00;99.90;;;;;;4927915;29;20475;-75
2022/11/30 08:08:42;;;;;;;44.73;23.53;;;9.00;99.90;;;;;;4926672;29;20195;-75
2022/11/30 08:11:10;;;;;;;42.20;22.33;;;9.00;99.90;;;;;;4923395;29;20435;-74
2022/11/30 08:13:36;;;;;;;30.73;21.57;;;9.00;99.90;;;;;;4925737;29;20950;-77
2022/11/30 08:16:07;;;;;;;37.77;21.60;;;9.00;99.90;;;;;;4924269;29;20443;-76
2022/11/30 08:18:33;;;;;;;38.30;22.10;;;9.00;99.90;;;;;;4925553;29;20183;-76
2022/11/30 08:20:59;;;;;;;66.40;26.43;;;9.00;99.90;;;;;;4926242;29;20501;-76
2022/11/30 08:23:37;;;;;;;42.97;23.60;;;9.00;99.90;;;;;;4924184;29;20475;-76
2022/11/30 08:26:12;;;;;;;44.07;24.30;;;9.00;99.90;;;;;;4924303;29;20447;-76
2022/11/30 08:28:38;;;;;;;173.83;46.80;;;9.00;99.90;;;;;;4924372;29;20445;-76
2022/11/30 08:31:10;;;;;;;39.03;21.80;;;9.00;99.90;;;;;;4924005;29;20963;-77
2022/11/30 08:33:36;;;;;;;44.47;22.23;;;9.00;99.90;;;;;;4924568;29;20455;-76
2022/11/30 08:36:13;;;;;;;48.77;24.43;;;9.00;99.90;;;;;;4923458;29;20448;-81
2022/11/30 08:38:41;;;;;;;46.90;24.83;;;9.00;99.90;;;;;;4926154;29;20445;-85
2022/11/30 08:41:08;;;;;;;45.60;24.87;;;9.00;99.90;;;;;;4924399;29;20432;-79
2022/11/30 08:43:34;;;;;;;44.67;25.27;;;9.10;99.90;;;;;;4930993;29;21069;-80
2022/11/30 08:46:06;;;;;;;50.83;24.37;;;9.10;99.90;;;;;;4926473;29;20470;-80
2022/11/30 08:48:33;;;;;;;49.73;22.83;;;9.10;99.90;;;;;;4930300;29;20184;-78
2022/11/30 08:51:18;;;;;;;48.83;23.87;;;9.10;99.90;;;;;;4933624;29;20434;-78
2022/11/30 08:53:45;;;;;;;54.17;28.17;;;9.10;99.90;;;;;;4930575;29;20824;-77
2022/11/30 08:56:13;;;;;;;52.70;25.93;;;9.10;99.90;;;;;;4925543;29;20478;-77
2022/11/30 08:58:40;;;;;;;54.60;24.83;;;9.10;99.90;;;;;;4933029;29;20530;-76
2022/11/30 09:01:12;;;;;;;48.47;22.53;;;9.10;99.90;;;;;;4929520;29;20466;-77
2022/11/30 09:03:38;;;;;;;44.37;23.50;;;9.10;99.90;;;;;;4933464;29;20543;-78
2022/11/30 09:06:06;;;;;;;44.93;23.50;;;9.10;99.90;;;;;;4933448;29;20934;-78
2022/11/30 09:08:31;;;;;;;33.53;20.37;;;9.10;99.90;;;;;;4930748;29;20442;-78
2022/11/30 09:10:57;;;;;;;42.70;25.33;;;9.10;99.90;;;;;;4933610;29;20934;-77
2022/11/30 09:13:22;;;;;;;48.50;24.67;;;9.20;99.90;;;;;;4932062;29;20245;-77
2022/11/30 09:15:55;;;;;;;45.70;23.83;;;9.20;99.90;;;;;;4929556;29;20183;-77
2022/11/30 09:18:20;;;;;;;39.40;23.20;;;9.20;99.90;;;;;;4930306;29;20210;-77
2022/11/30 09:20:46;;;;;;;34.33;19.27;;;9.20;99.90;;;;;;4933472;29;20945;-80
2022/11/30 09:23:11;;;;;;;51.53;25.40;;;9.20;99.90;;;;;;4932961;29;20581;-79
2022/11/30 09:25:37;;;;;;;42.93;23.00;;;9.20;99.90;;;;;;4932531;29;20677;-79
2022/11/30 09:28:03;;;;;;;37.20;23.40;;;9.20;99.90;;;;;;4933864;29;20187;-79
2022/11/30 09:30:28;;;;;;;45.37;23.13;;;9.20;99.90;;;;;;4927341;29;20187;-77
2022/11/30 09:32:54;;;;;;;45.90;23.70;;;9.20;99.90;;;;;;4927057;29;20199;-77
2022/11/30 09:35:19;;;;;;;39.27;21.20;;;9.20;99.90;;;;;;4933014;29;20268;-78
2022/11/30 09:37:45;;;;;;;41.90;22.03;;;9.20;99.90;;;;;;4935802;29;20186;-80
2022/11/30 09:40:13;;;;;;;39.67;22.70;;;9.20;99.90;;;;;;4936855;29;20697;-80
2022/11/30 09:43:00;;;;;;;36.80;21.23;;;9.20;99.90;;;;;;4930937;29;20223;-79
2022/11/30 09:45:29;;;;;;;35.80;18.93;;;9.20;99.90;;;;;;4928788;29;20850;-77
2022/11/30 09:48:36;;;;;;;38.00;20.83;;;9.20;99.90;;;;;;4926956;29;20443;-78
2022/11/30 09:51:10;;;;;;;39.23;21.63;;;9.20;99.90;;;;;;4929392;29;20434;-78
2022/11/30 09:53:46;;;;;;;36.97;20.57;;;9.20;99.90;;;;;;4926098;29;21114;-77
2022/11/30 09:56:24;;;;;;;39.30;20.70;;;9.20;99.90;;;;;;4918282;29;20483;-76
2022/11/30 09:58:55;;;;;;;39.73;20.30;;;9.20;99.90;;;;;;4908106;29;21089;-77
2022/11/30 10:01:21;;;;;;;36.27;22.87;;;9.30;99.90;;;;;;4906403;29;20865;-78
2022/11/30 10:03:47;;;;;;;33.37;19.60;;;9.30;99.90;;;;;;4901578;29;20464;-79
2022/11/30 10:06:24;;;;;;;33.27;19.90;;;9.30;99.90;;;;;;4899026;29;20467;-78
2022/11/30 10:09:22;;;;;;;42.73;20.53;;;9.30;99.90;;;;;;4907808;29;20203;-78
2022/11/30 10:11:55;;;;;;;37.90;21.63;;;9.30;99.90;;;;;;4910756;29;20451;-79
2022/11/30 10:14:33;;;;;;;37.73;20.20;;;9.30;99.90;;;;;;4915902;29;20988;-77
2022/11/30 10:17:10;;;;;;;36.30;19.73;;;9.30;99.90;;;;;;4910382;29;20864;-78
2022/11/30 10:20:17;;;;;;;36.13;20.83;;;9.30;99.90;;;;;;4907527;29;21144;-79
2022/11/30 10:23:06;;;;;;;44.23;21.10;;;9.30;99.90;;;;;;4909711;29;20482;-78
2022/11/30 10:25:53;;;;;;;42.07;20.37;;;9.20;99.90;;;;;;4909799;29;20436;-79
2022/11/30 10:28:32;;;;;;;31.27;18.93;;;9.20;99.90;;;;;;4909894;29;20431;-78
2022/11/30 10:31:00;;;;;;;31.37;18.03;;;9.20;99.90;;;;;;4909660;29;20474;-74
2022/11/30 10:33:33;;;;;;;30.53;18.17;;;9.20;99.90;;;;;;4908259;29;20496;-76
2022/11/30 10:36:04;;;;;;;33.03;20.47;;;9.20;99.90;;;;;;4916258;29;20443;-75
2022/11/30 10:38:45;;;;;;;29.33;17.13;;;9.20;99.90;;;;;;4916092;29;20452;-75
2022/11/30 10:41:22;;;;;;;37.67;19.67;;;9.20;99.90;;;;;;4917137;29;20432;-77
2022/11/30 10:43:53;;;;;;;34.23;19.50;;;9.20;99.90;;;;;;4915749;29;20447;-78
2022/11/30 10:46:35;;;;;;;30.67;17.90;;;9.20;99.90;;;;;;4915582;29;20420;-77
2022/11/30 10:49:05;;;;;;;32.77;19.03;;;9.20;99.90;;;;;;4916125;29;20939;-76
2022/11/30 10:51:35;;;;;;;35.00;20.50;;;9.20;99.90;;;;;;4914750;29;20905;-80
2022/11/30 10:54:11;;;;;;;32.53;18.37;;;9.20;99.90;;;;;;4905451;29;20498;-82
2022/11/30 10:56:36;;;;;;;32.23;19.47;;;9.20;99.90;;;;;;4915947;29;20451;-79
2022/11/30 10:59:10;;;;;;;29.63;20.10;;;9.20;99.90;;;;;;4914096;29;20963;-77
2022/11/30 11:01:38;;;;;;;34.87;18.53;;;9.20;99.90;;;;;;4915617;29;20247;-77
2022/11/30 11:04:24;;;;;;;27.80;18.20;;;9.20;99.90;;;;;;4916006;29;20963;-80
2022/11/30 11:06:58;;;;;;;29.20;15.93;;;9.20;99.90;;;;;;4915534;29;20486;-79
2022/11/30 11:09:39;;;;;;;33.83;19.67;;;9.20;99.90;;;;;;4908124;29;20965;-78
2022/11/30 11:12:13;;;;;;;35.27;19.83;;;9.20;99.90;;;;;;4907575;29;20455;-77
2022/11/30 11:14:39;;;;;;;38.90;20.47;;;9.20;99.90;;;;;;4906894;29;20766;-81
2022/11/30 11:17:25;;;;;;;44.00;21.93;;;9.20;99.90;;;;;;4908319;29;20451;-81
2022/11/30 11:19:51;;;;;;;42.43;23.43;;;9.20;99.90;;;;;;4907957;29;20278;-80
2022/11/30 11:22:22;;;;;;;36.33;19.77;;;9.20;99.90;;;;;;4906609;29;20469;-79
2022/11/30 11:24:49;;;;;;;32.77;18.90;;;9.20;99.90;;;;;;4906495;29;20452;-81
2022/11/30 11:27:33;;;;;;;33.63;18.70;;;9.20;99.90;;;;;;4910183;29;21005;-80
2022/11/30 11:30:16;;;;;;;35.40;17.70;;;9.20;99.90;;;;;;4908656;29;20939;-83
2022/11/30 11:33:19;;;;;;;34.73;20.00;;;9.20;99.90;;;;;;4908451;29;20456;-79
2022/11/30 11:35:48;;;;;;;43.80;22.43;;;9.20;99.90;;;;;;4916473;29;20543;-83
2022/11/30 11:38:47;;;;;;;34.43;18.53;;;9.10;99.90;;;;;;4906082;29;20535;-82
2022/11/30 11:41:20;;;;;;;35.97;20.93;;;9.10;99.90;;;;;;4907328;29;20437;-83
2022/11/30 11:44:22;;;;;;;36.10;20.60;;;9.10;99.90;;;;;;4906221;29;20456;-79
2022/11/30 11:47:00;;;;;;;46.10;22.37;;;9.10;99.90;;;;;;4904692;29;20455;-75
2022/11/30 11:49:28;;;;;;;41.10;21.53;;;9.10;99.90;;;;;;4912398;29;20459;-75
2022/11/30 11:52:11;;;;;;;34.47;18.60;;;9.10;99.90;;;;;;4914924;29;20809;-75
2022/11/30 11:54:54;;;;;;;40.53;21.60;;;9.10;99.90;;;;;;4908299;29;20450;-80
2022/11/30 11:57:24;;;;;;;37.37;22.27;;;9.10;99.90;;;;;;4908502;29;20434;-79
2022/11/30 11:59:55;;;;;;;34.70;17.80;;;9.10;99.90;;;;;;4907125;29;20824;-80
2022/11/30 12:02:29;;;;;;;30.13;18.00;;;9.10;99.90;;;;;;4905870;29;20490;-80
2022/11/30 12:05:19;;;;;;;33.83;19.13;;;9.10;99.90;;;;;;4906368;29;20853;-79
2022/11/30 12:07:53;;;;;;;35.07;19.33;;;9.10;99.90;;;;;;4908241;29;20594;-78
2022/11/30 12:10:36;;;;;;;29.77;17.00;;;9.10;99.90;;;;;;4907109;29;20573;-78
2022/11/30 12:13:01;;;;;;;31.90;17.20;;;9.10;99.90;;;;;;4907179;29;20436;-79
2022/11/30 12:15:51;;;;;;;32.80;18.00;;;9.10;99.90;;;;;;4905503;29;20530;-77
2022/11/30 12:18:45;;;;;;;34.73;18.53;;;9.10;99.90;;;;;;4904938;29;20199;-78
2022/11/30 12:21:14;;;;;;;28.80;16.93;;;9.10;99.90;;;;;;4900161;29;20976;-78
2022/11/30 12:24:09;;;;;;;38.07;18.80;;;9.10;99.90;;;;;;4912063;29;20488;-84
2022/11/30 12:26:39;;;;;;;26.60;15.60;;;9.00;99.90;;;;;;4906030;29;20564;-76
2022/11/30 12:29:20;;;;;;;34.97;18.45;;;9.00;99.90;;;;;;4905151;29;20451;-73
2022/11/30 12:32:03;;;;;;;26.20;16.80;;;9.00;99.90;;;;;;4892606;29;20711;-74
2022/11/30 12:34:46;;;;;;;27.85;19.00;;;9.40;99.90;;;;;;4906058;29;20453;-73
2022/11/30 12:37:26;;;;;;;29.30;16.07;;;9.50;99.90;;;;;;4905621;29;20193;-73
2022/11/30 12:40:02;;;;;;;26.60;16.03;;;9.50;99.90;;;;;;4914360;29;20894;-73
2022/11/30 12:42:39;;;;;;;26.10;14.33;;;9.60;99.90;;;;;;4906359;29;20928;-75
2022/11/30 12:45:33;;;;;;;22.53;13.33;;;9.60;99.90;;;;;;4904128;29;20941;-77
2022/11/30 12:48:33;;;;;;;24.93;13.33;;;9.50;99.90;;;;;;4905587;29;20971;-73
2022/11/30 12:50:59;;;;;;;22.63;14.10;;;9.50;99.90;;;;;;4908022;29;20527;-81
2022/11/30 12:53:35;;;;;;;22.43;14.43;;;9.40;99.90;;;;;;4907860;29;20539;-78
2022/11/30 12:56:37;;;;;;;25.20;15.13;;;9.40;99.90;;;;;;4906136;29;20188;-77
2022/11/30 12:59:29;;;;;;;24.53;14.23;;;9.40;99.90;;;;;;4908158;29;20444;-81
2022/11/30 13:02:16;;;;;;;27.37;15.53;;;9.30;99.90;;;;;;4907721;29;20578;-78
2022/11/30 13:04:49;;;;;;;26.23;13.73;;;9.30;99.90;;;;;;4906710;29;20839;-78
2022/11/30 13:07:39;;;;;;;23.37;15.63;;;9.30;99.90;;;;;;4909576;29;20492;-81
2022/11/30 13:10:11;;;;;;;24.03;13.43;;;9.30;99.90;;;;;;4912372;29;20539;-83
2022/11/30 13:12:41;;;;;;;22.47;13.67;;;9.30;99.90;;;;;;4911449;29;20440;-84
2022/11/30 13:15:21;;;;;;;19.40;11.87;;;9.20;99.90;;;;;;4909327;29;20436;-79
2022/11/30 13:17:48;;;;;;;18.27;12.33;;;9.20;99.90;;;;;;4908628;29;20444;-78
2022/11/30 13:20:39;;;;;;;18.17;12.03;;;9.20;99.90;;;;;;4908582;29;20545;-80
2022/11/30 13:23:13;;;;;;;18.20;11.23;;;9.20;99.90;;;;;;4908988;29;21022;-81
2022/11/30 13:25:48;;;;;;;17.57;10.10;;;9.20;99.90;;;;;;4909344;29;20437;-80
2022/11/30 13:28:41;;;;;;;25.83;12.67;;;9.20;99.90;;;;;;4908903;29;20490;-76
2022/11/30 13:31:21;;;;;;;17.53;12.40;;;9.20;99.90;;;;;;4910532;29;20535;-74
2022/11/30 13:33:55;;;;;;;16.33;11.50;;;9.20;99.90;;;;;;4906368;29;20447;-75
2022/11/30 13:36:32;;;;;;;19.60;12.17;;;9.10;99.90;;;;;;4909415;29;20438;-74
2022/11/30 13:39:13;;;;;;;18.40;12.10;;;9.10;99.90;;;;;;4911464;29;20439;-74
2022/11/30 13:41:45;;;;;;;20.10;11.60;;;9.10;99.90;;;;;;4910788;29;20441;-75
2022/11/30 13:44:23;;;;;;;20.90;13.93;;;9.10;99.90;;;;;;4908839;29;20782;-75
2022/11/30 13:46:50;;;;;;;21.50;12.20;;;9.10;99.90;;;;;;4908078;29;20603;-75
2022/11/30 13:49:32;;;;;;;19.90;12.87;;;9.10;99.90;;;;;;4908013;29;20516;-74
2022/11/30 13:51:57;;;;;;;20.50;13.30;;;9.10;99.90;;;;;;4908057;29;20841;-74
2022/11/30 13:54:46;;;;;;;22.83;12.97;;;9.10;99.90;;;;;;4910561;29;20432;-74
2022/11/30 13:57:24;;;;;;;21.00;13.77;;;9.10;99.90;;;;;;4906664;29;20292;-74
2022/11/30 13:59:51;;;;;;;18.57;13.27;;;9.10;99.90;;;;;;4907854;29;20432;-74
2022/11/30 14:02:32;;;;;;;16.97;12.53;;;9.10;99.90;;;;;;4910592;29;20507;-74
2022/11/30 14:05:16;;;;;;;18.23;12.17;;;9.10;99.90;;;;;;4909655;29;20833;-74
2022/11/30 14:07:49;;;;;;;21.90;14.03;;;9.10;99.90;;;;;;4907154;29;20537;-74
2022/11/30 14:10:32;;;;;;;20.13;14.53;;;9.20;99.90;;;;;;4910527;29;20793;-74
2022/11/30 14:12:59;;;;;;;18.77;12.10;;;9.10;99.90;;;;;;4909933;29;20439;-74
2022/11/30 14:15:36;;;;;;;17.37;12.50;;;9.10;99.90;;;;;;4907063;29;21019;-74
2022/11/30 14:18:08;;;;;;;18.03;12.73;;;9.10;99.90;;;;;;4909467;29;20519;-75
2022/11/30 14:20:59;;;;;;;17.60;12.87;;;9.10;99.90;;;;;;4909643;29;20439;-75
2022/11/30 14:23:26;;;;;;;17.20;11.50;;;9.00;99.90;;;;;;4891956;29;20988;-74
2022/11/30 14:25:55;;;;;;;17.33;12.17;;;9.10;99.90;;;;;;4909427;29;20443;-75
2022/11/30 14:28:25;;;;;;;16.60;11.53;;;9.00;99.90;;;;;;4906835;29;20436;-75
2022/11/30 14:30:53;;;;;;;20.67;11.67;;;9.00;99.90;;;;;;4909963;29;20479;-75
2022/11/30 14:33:34;;;;;;;17.30;11.80;;;9.00;99.90;;;;;;4907745;29;20940;-75
2022/11/30 14:36:01;;;;;;;15.70;11.40;;;9.00;99.90;;;;;;4906820;29;20854;-76
2022/11/30 14:38:29;;;;;;;16.60;11.50;;;9.00;99.90;;;;;;4907210;29;20834;-77
2022/11/30 14:40:56;;;;;;;16.50;11.17;;;9.00;99.90;;;;;;4908661;29;20841;-73
2022/11/30 14:43:22;;;;;;;18.50;11.87;;;8.90;99.90;;;;;;4908562;29;20542;-76
2022/11/30 14:45:58;;;;;;;20.87;12.60;;;8.90;99.90;;;;;;4906870;29;20448;-75
2022/11/30 14:48:24;;;;;;;23.47;14.97;;;8.90;99.90;;;;;;4907204;29;20956;-78
2022/11/30 14:50:55;;;;;;;22.30;14.67;;;8.80;99.90;;;;;;4907754;29;20443;-75
2022/11/30 14:53:42;;;;;;;22.80;13.90;;;8.90;99.90;;;;;;4909907;29;20432;-74
2022/11/30 14:56:29;;;;;;;23.67;15.60;;;8.90;99.90;;;;;;4909656;29;20501;-73
2022/11/30 14:59:24;;;;;;;25.90;15.83;;;8.90;99.90;;;;;;4909491;29;20661;-73
2022/11/30 15:01:56;;;;;;;38.23;19.70;;;8.90;99.90;;;;;;4909158;29;20475;-72
2022/11/30 15:04:26;;;;;;;57.50;33.00;;;8.80;99.90;;;;;;4907656;29;20593;-76
2022/11/30 15:06:52;;;;;;;39.97;20.67;;;8.80;99.90;;;;;;4909826;29;20568;-77
2022/11/30 15:09:23;;;;;;;36.00;19.70;;;8.90;99.90;;;;;;4913783;29;20441;-74
2022/11/30 15:11:50;;;;;;;43.20;19.67;;;8.90;99.90;;;;;;4909094;29;20423;-72
2022/11/30 15:14:16;;;;;;;36.50;17.30;;;8.90;99.90;;;;;;4912950;29;20455;-73
2022/11/30 15:16:53;;;;;;;35.10;18.47;;;8.80;99.90;;;;;;4907419;29;20428;-75
2022/11/30 15:19:31;;;;;;;28.40;16.97;;;8.80;99.90;;;;;;4908486;29;20274;-76
2022/11/30 15:21:57;;;;;;;27.13;16.37;;;8.80;99.90;;;;;;4907208;29;20588;-78
2022/11/30 15:24:24;;;;;;;27.93;16.53;;;8.80;99.90;;;;;;4909788;29;20448;-78
2022/11/30 15:26:58;;;;;;;28.10;16.47;;;8.90;99.90;;;;;;4908329;29;20883;-79
2022/11/30 15:29:31;;;;;;;28.67;14.50;;;8.90;99.90;;;;;;4906922;29;20539;-78
2022/11/30 15:31:59;;;;;;;31.83;17.60;;;8.90;99.90;;;;;;4908686;29;20530;-74
2022/11/30 15:34:46;;;;;;;33.30;18.97;;;8.90;99.90;;;;;;4908314;29;20454;-77
2022/11/30 15:37:12;;;;;;;31.87;18.53;;;8.80;99.90;;;;;;4909064;29;20509;-75
2022/11/30 15:39:39;;;;;;;30.37;16.50;;;8.80;99.90;;;;;;4907249;29;20936;-74
2022/11/30 15:42:05;;;;;;;24.73;17.00;;;8.80;99.90;;;;;;4909779;29;20212;-76
2022/11/30 15:44:44;;;;;;;31.37;17.23;;;8.80;99.90;;;;;;4907381;29;20467;-76
2022/11/30 15:47:34;;;;;;;34.93;18.20;;;8.80;99.90;;;;;;4909689;29;20427;-74
2022/11/30 15:50:00;;;;;;;33.97;16.80;;;8.80;99.90;;;;;;4909601;29;20432;-77
2022/11/30 15:52:28;;;;;;;35.50;18.20;;;8.80;99.90;;;;;;4906274;29;20920;-74
2022/11/30 15:55:00;;;;;;;33.63;17.53;;;8.80;99.90;;;;;;4908544;29;20191;-75
2022/11/30 15:57:46;;;;;;;28.90;17.57;;;8.80;99.90;;;;;;4909296;29;20450;-76
2022/11/30 16:00:12;;;;;;;36.87;20.10;;;8.80;99.90;;;;;;4908745;29;20832;-76
2022/11/30 16:02:38;;;;;;;31.10;17.93;;;8.80;99.90;;;;;;4906223;29;20476;-77
2022/11/30 16:05:03;;;;;;;29.90;17.90;;;8.90;99.90;;;;;;4906698;29;20185;-78
2022/11/30 16:07:49;;;;;;;38.23;21.07;;;8.90;99.90;;;;;;4908658;29;20188;-77
2022/11/30 16:10:25;;;;;;;43.80;22.40;;;8.80;99.90;;;;;;4906741;29;20184;-77
2022/11/30 16:12:52;;;;;;;43.47;24.03;;;8.80;99.90;;;;;;4906177;29;20443;-80
2022/11/30 16:15:29;;;;;;;44.97;22.93;;;8.80;99.90;;;;;;4906151;29;20539;-76
2022/11/30 16:18:12;;;;;;;46.47;21.60;;;8.80;99.90;;;;;;4907659;29;20431;-76
2022/11/30 16:20:39;;;;;;;48.27;21.20;;;8.80;99.90;;;;;;4921534;29;20952;-79
2022/11/30 16:23:05;;;;;;;35.30;19.20;;;8.80;99.90;;;;;;4906815;29;20483;-78
2022/11/30 16:25:30;;;;;;;42.60;19.63;;;8.80;99.90;;;;;;4910550;29;20999;-75
2022/11/30 16:27:56;;;;;;;39.77;17.80;;;8.80;99.90;;;;;;4905933;29;20440;-75
2022/11/30 16:30:23;;;;;;;35.80;18.60;;;8.80;99.90;;;;;;4914480;29;20258;-75
2022/11/30 16:32:49;;;;;;;32.80;19.27;;;8.70;99.90;;;;;;4907890;29;20195;-75
2022/11/30 16:35:37;;;;;;;32.90;19.10;;;8.70;99.90;;;;;;4906284;29;20471;-75
2022/11/30 16:38:03;;;;;;;29.93;19.40;;;8.70;99.90;;;;;;4906635;29;20453;-78
2022/11/30 16:40:30;;;;;;;29.97;17.47;;;8.60;99.90;;;;;;4904437;29;20532;-76
2022/11/30 16:42:55;;;;;;;35.07;20.37;;;8.60;99.90;;;;;;4907023;29;20489;-76
2022/11/30 16:45:23;;;;;;;32.43;20.77;;;8.60;99.90;;;;;;4905353;29;20436;-78
2022/11/30 16:47:50;;;;;;;36.50;18.53;;;8.60;99.90;;;;;;4906617;29;20191;-76
2022/11/30 16:50:16;;;;;;;30.50;20.57;;;8.60;99.90;;;;;;4906941;29;20440;-78
2022/11/30 16:52:42;;;;;;;34.87;21.27;;;8.60;99.90;;;;;;4905265;29;20807;-80
2022/11/30 16:55:12;;;;;;;28.00;17.37;;;8.60;99.90;;;;;;4907636;29;20440;-77
2022/11/30 16:57:37;;;;;;;28.70;17.70;;;8.60;99.90;;;;;;4905628;29;20180;-77
2022/11/30 17:00:04;;;;;;;27.37;17.60;;;8.50;99.90;;;;;;4906345;29;20999;-76